createdAt,value
2019-06-26T00:01:44.203Z,67.90
2019-06-26T00:04:12.130Z,68.20
2019-06-26T00:06:39.737Z,68.90
2019-06-26T00:09:09.083Z,69.20
2019-06-26T00:11:37.457Z,68.80
2019-06-26T00:14:04.901Z,68.90
2019-06-26T00:16:33.210Z,69.10
2019-06-26T00:19:00.732Z,69.90
2019-06-26T00:21:28.631Z,70.50
2019-06-26T00:23:56.159Z,70.50
2019-06-26T00:26:24.191Z,69.70
2019-06-26T00:28:51.712Z,70.00
2019-06-26T00:31:19.221Z,70.30
2019-06-26T00:33:46.739Z,71.10
2019-06-26T00:36:14.377Z,71.40
2019-06-26T00:38:41.948Z,71.50
2019-06-26T00:41:09.469Z,71.70
2019-06-26T00:43:42.194Z,71.40
2019-06-26T00:46:06.993Z,71.40
2019-06-26T00:48:34.845Z,72.10
2019-06-26T00:51:02.983Z,72.50
2019-06-26T00:53:30.664Z,72.70
2019-06-26T00:55:58.453Z,73.30
2019-06-26T00:58:26.235Z,73.20
2019-06-26T01:00:53.893Z,73.70
2019-06-26T01:03:21.528Z,73.20
2019-06-26T01:05:49.340Z,73.40
2019-06-26T01:08:16.899Z,74.30
2019-06-26T01:10:44.421Z,74.10
2019-06-26T01:13:12.004Z,73.70
2019-06-26T01:15:39.514Z,73.80
2019-06-26T01:18:07.029Z,73.70
2019-06-26T01:20:34.961Z,74.30
2019-06-26T01:23:02.593Z,74.10
2019-06-26T01:25:30.838Z,74.20
2019-06-26T01:27:58.739Z,74.70
2019-06-26T01:30:26.125Z,75.00
2019-06-26T01:32:53.988Z,75.30
2019-06-26T01:35:21.575Z,75.90
2019-06-26T01:37:49.231Z,76.80
2019-06-26T01:40:17.190Z,76.60
2019-06-26T01:42:44.978Z,76.30
2019-06-26T01:45:13.218Z,76.40
2019-06-26T01:47:41.253Z,76.60
2019-06-26T01:50:08.878Z,76.60
2019-06-26T01:52:36.615Z,76.50
2019-06-26T01:55:04.209Z,76.70
2019-06-26T01:57:32.095Z,76.60
2019-06-26T01:59:59.909Z,76.40
2019-06-26T02:02:27.442Z,76.00
2019-06-26T02:04:55.176Z,76.70
2019-06-26T02:07:23.029Z,76.70
2019-06-26T02:09:50.481Z,77.40
2019-06-26T02:12:18.550Z,77.40
2019-06-26T02:14:46.179Z,76.90
2019-06-26T02:17:13.779Z,77.00
2019-06-26T02:19:41.304Z,76.80
2019-06-26T02:22:08.710Z,77.10
2019-06-26T02:24:36.362Z,77.30
2019-06-26T02:27:04.230Z,77.60
2019-06-26T02:29:33.327Z,77.50
2019-06-26T02:32:00.882Z,77.00
2019-06-26T02:34:28.883Z,77.40
2019-06-26T02:36:56.382Z,77.40
2019-06-26T02:39:24.453Z,77.20
2019-06-26T02:41:52.014Z,78.00
2019-06-26T02:44:19.524Z,78.30
2019-06-26T02:46:47.098Z,79.10
2019-06-26T02:49:14.645Z,79.40
2019-06-26T02:51:43.214Z,79.70
2019-06-26T02:54:11.331Z,79.60
2019-06-26T02:56:39.285Z,80.10
2019-06-26T02:59:06.891Z,79.80
2019-06-26T03:01:34.825Z,79.60
2019-06-26T03:04:02.456Z,80.30
2019-06-26T03:06:30.016Z,79.40
2019-06-26T03:08:57.579Z,79.40
2019-06-26T03:11:25.580Z,79.80
2019-06-26T03:13:53.463Z,79.80
2019-06-26T03:16:21.067Z,79.50
2019-06-26T03:18:48.890Z,79.80
2019-06-26T03:21:16.433Z,80.20
2019-06-26T03:23:44.623Z,80.00
2019-06-26T03:26:12.087Z,79.90
2019-06-26T03:28:39.643Z,80.20
2019-06-26T03:31:07.182Z,80.20
2019-06-26T03:33:34.950Z,79.90
2019-06-26T03:36:02.883Z,79.80
2019-06-26T03:38:30.391Z,79.80
2019-06-26T03:40:57.948Z,79.80
2019-06-26T03:43:25.711Z,79.50
2019-06-26T03:45:53.637Z,79.10
2019-06-26T03:48:21.213Z,79.60
2019-06-26T03:50:49.189Z,79.80
2019-06-26T03:53:16.602Z,79.80
2019-06-26T03:55:44.433Z,79.80
2019-06-26T03:58:12.409Z,80.30
2019-06-26T04:00:41.092Z,80.50
2019-06-26T04:03:09.021Z,80.40
2019-06-26T04:05:36.522Z,80.60
2019-06-26T04:08:04.502Z,80.70
2019-06-26T04:10:32.325Z,80.80
2019-06-26T04:12:59.870Z,80.60
2019-06-26T04:15:40.936Z,80.70
2019-06-26T04:17:56.723Z,80.80
2019-06-26T04:20:24.547Z,80.90
2019-06-26T04:22:52.294Z,81.50
2019-06-26T04:25:20.238Z,82.00
2019-06-26T04:27:48.112Z,82.00
2019-06-26T04:30:16.988Z,81.60
2019-06-26T04:32:44.518Z,81.90
2019-06-26T04:35:12.685Z,81.80
2019-06-26T04:37:40.502Z,81.50
2019-06-26T04:40:09.753Z,81.40
2019-06-26T04:42:37.494Z,81.70
2019-06-26T04:45:05.231Z,81.70
2019-06-26T04:47:33.402Z,82.30
2019-06-26T04:50:01.317Z,82.30
2019-06-26T04:52:29.028Z,82.10
2019-06-26T04:54:57.311Z,82.00
2019-06-26T04:57:25.215Z,82.20
2019-06-26T04:59:52.806Z,82.40
2019-06-26T05:02:20.740Z,82.00
2019-06-26T05:04:48.976Z,81.70
2019-06-26T05:07:16.726Z,81.40
2019-06-26T05:09:44.259Z,82.40
2019-06-26T05:12:11.828Z,83.10
2019-06-26T05:14:39.228Z,82.60
2019-06-26T05:17:07.517Z,82.50
2019-06-26T05:19:35.351Z,82.40
2019-06-26T05:22:02.886Z,82.60
2019-06-26T05:24:30.730Z,82.40
2019-06-26T05:26:58.304Z,83.20
2019-06-26T05:29:26.576Z,83.00
2019-06-26T05:31:54.793Z,84.30
2019-06-26T05:34:22.376Z,83.00
2019-06-26T05:36:50.124Z,83.50
2019-06-26T05:39:18.226Z,83.90
2019-06-26T05:41:45.864Z,84.30
2019-06-26T05:44:13.745Z,84.80
2019-06-26T05:46:41.559Z,84.60
2019-06-26T05:49:13.447Z,84.90
2019-06-26T05:51:40.941Z,85.60
2019-06-26T05:54:08.459Z,84.60
2019-06-26T05:56:36.344Z,84.60
2019-06-26T05:59:03.976Z,85.10
2019-06-26T06:01:31.938Z,85.20
2019-06-26T06:03:59.786Z,86.60
2019-06-26T06:06:40.742Z,86.70
2019-06-26T06:08:57.120Z,86.00
2019-06-26T06:11:24.777Z,86.80
2019-06-26T06:13:52.658Z,86.80
2019-06-26T06:16:20.558Z,86.00
2019-06-26T06:18:48.392Z,85.60
2019-06-26T06:21:16.388Z,85.20
2019-06-26T06:23:44.093Z,85.50
2019-06-26T06:26:12.788Z,81.90
2019-06-26T06:28:42.052Z,81.30
2019-06-26T06:31:09.939Z,80.00
2019-06-26T06:33:37.431Z,81.30
2019-06-26T06:36:04.974Z,79.60
2019-06-26T06:38:32.591Z,78.70
2019-06-26T06:41:00.122Z,78.70
2019-06-26T06:43:27.521Z,79.90
2019-06-26T06:45:55.499Z,77.90
2019-06-26T06:48:23.095Z,77.00
2019-06-26T06:50:50.580Z,77.00
2019-06-26T06:53:18.813Z,78.10
2019-06-26T06:55:46.383Z,76.40
2019-06-26T06:58:14.242Z,76.90
2019-06-26T07:00:41.994Z,75.00
2019-06-26T07:03:09.485Z,76.80
2019-06-26T07:05:38.283Z,77.30
2019-06-26T07:08:05.814Z,76.90
2019-06-26T07:10:33.655Z,76.60
2019-06-26T07:13:01.680Z,77.50
2019-06-26T07:15:29.226Z,74.30
2019-06-26T07:17:57.161Z,74.40
2019-06-26T07:20:24.688Z,73.60
2019-06-26T07:22:52.366Z,75.00
2019-06-26T07:25:20.542Z,75.60
2019-06-26T07:27:48.007Z,73.50
2019-06-26T07:30:16.322Z,72.30
2019-06-26T07:32:44.142Z,71.90
2019-06-26T07:35:11.748Z,71.60
2019-06-26T07:37:39.781Z,72.40
2019-06-26T07:40:07.737Z,72.80
2019-06-26T07:42:35.234Z,72.20
2019-06-26T07:45:03.488Z,74.20
2019-06-26T07:47:42.526Z,73.20
2019-06-26T07:50:02.067Z,73.40
2019-06-26T07:52:30.860Z,72.60
2019-06-26T07:54:58.664Z,71.50
2019-06-26T07:57:26.145Z,71.40
2019-06-26T07:59:54.889Z,70.60
2019-06-26T08:02:22.285Z,70.30
2019-06-26T08:04:50.502Z,71.30
2019-06-26T08:07:18.220Z,69.90
2019-06-26T08:09:45.775Z,68.40
2019-06-26T08:12:13.606Z,69.60
2019-06-26T08:14:41.121Z,69.70
2019-06-26T08:17:08.671Z,67.70
2019-06-26T08:19:36.335Z,70.60
2019-06-26T08:22:03.814Z,68.40
2019-06-26T08:24:31.323Z,69.80
2019-06-26T08:26:59.561Z,68.40
2019-06-26T08:29:27.342Z,71.00
2019-06-26T08:31:55.242Z,70.90
2019-06-26T08:34:22.808Z,73.40
2019-06-26T08:36:50.592Z,73.30
2019-06-26T08:39:18.313Z,71.20
2019-06-26T08:41:46.123Z,77.10
2019-06-26T08:44:13.662Z,73.80
2019-06-26T08:46:41.588Z,71.80
2019-06-26T08:49:24.401Z,69.10
2019-06-26T08:51:38.706Z,69.70
2019-06-26T08:54:06.310Z,70.80
2019-06-26T08:56:34.230Z,71.20
2019-06-26T08:59:02.053Z,69.40
2019-06-26T09:01:29.614Z,68.60
2019-06-26T09:03:57.266Z,68.50
2019-06-26T09:06:25.018Z,72.50
2019-06-26T09:08:52.526Z,69.00
2019-06-26T09:11:20.342Z,69.90
2019-06-26T09:13:47.854Z,71.00
2019-06-26T09:16:16.006Z,68.70
2019-06-26T09:18:43.522Z,71.10
2019-06-26T09:21:11.056Z,67.50
2019-06-26T09:23:38.847Z,67.10
2019-06-26T09:26:06.725Z,67.80
2019-06-26T09:28:34.353Z,66.50
2019-06-26T09:31:01.918Z,65.50
2019-06-26T09:33:32.247Z,65.50
2019-06-26T09:35:58.930Z,66.40
2019-06-26T09:38:26.697Z,63.20
2019-06-26T09:40:54.745Z,63.10
2019-06-26T09:43:22.141Z,67.10
2019-06-26T09:45:49.878Z,66.20
2019-06-26T09:48:18.303Z,65.90
2019-06-26T09:50:45.713Z,68.50
2019-06-26T09:53:13.122Z,68.70
2019-06-26T09:55:41.114Z,67.10
2019-06-26T09:58:08.722Z,66.50
2019-06-26T10:00:36.233Z,66.50
2019-06-26T10:03:04.479Z,67.20
2019-06-26T10:05:32.382Z,67.00
2019-06-26T10:07:59.792Z,67.00
2019-06-26T10:10:27.527Z,66.20
2019-06-26T10:12:55.020Z,66.40
2019-06-26T10:15:23.539Z,64.70
2019-06-26T10:17:50.934Z,67.60
2019-06-26T10:20:18.654Z,66.20
2019-06-26T10:22:46.186Z,62.40
2019-06-26T10:25:13.807Z,63.20
2019-06-26T10:27:41.917Z,65.50
2019-06-26T10:30:10.126Z,63.90
2019-06-26T10:32:37.717Z,63.60
2019-06-26T10:35:05.685Z,64.30
2019-06-26T10:37:33.393Z,62.90
2019-06-26T10:40:00.868Z,62.80
2019-06-26T10:42:28.480Z,63.70
2019-06-26T10:44:55.907Z,63.60
2019-06-26T10:47:23.535Z,62.60
2019-06-26T10:49:51.326Z,58.80
2019-06-26T10:52:19.878Z,62.90
2019-06-26T10:54:49.148Z,59.10
2019-06-26T10:57:16.999Z,60.50
2019-06-26T10:59:44.662Z,59.70
2019-06-26T11:02:16.609Z,61.20
2019-06-26T11:04:42.314Z,58.00
2019-06-26T11:07:09.941Z,56.30
2019-06-26T11:09:37.472Z,55.30
2019-06-26T11:12:05.282Z,56.40
2019-06-26T11:14:32.791Z,58.60
2019-06-26T11:17:00.516Z,60.00
2019-06-26T11:19:42.779Z,56.30
2019-06-26T11:21:57.566Z,53.60
2019-06-26T11:24:25.329Z,57.30
2019-06-26T11:26:52.929Z,56.10
2019-06-26T11:29:20.877Z,53.10
2019-06-26T11:31:48.449Z,56.10
2019-06-26T11:34:16.055Z,55.20
2019-06-26T11:36:43.605Z,53.50
2019-06-26T11:39:11.170Z,56.10
2019-06-26T11:41:38.775Z,54.70
2019-06-26T11:44:06.514Z,55.60
2019-06-26T11:46:36.931Z,55.60
2019-06-26T11:49:03.917Z,54.40
2019-06-26T11:51:31.824Z,55.10
2019-06-26T11:53:59.223Z,52.40
2019-06-26T11:56:27.535Z,54.80
2019-06-26T11:58:55.661Z,50.90
2019-06-26T12:01:23.293Z,53.30
2019-06-26T12:03:50.665Z,52.80
2019-06-26T12:06:19.526Z,53.00
2019-06-26T12:08:47.547Z,53.10
2019-06-26T12:11:15.123Z,54.90
2019-06-26T12:13:43.916Z,52.20
2019-06-26T12:16:11.441Z,54.00
2019-06-26T12:18:39.544Z,54.50
2019-06-26T12:21:07.217Z,57.10
2019-06-26T12:23:34.787Z,53.80
2019-06-26T12:26:02.388Z,56.70
2019-06-26T12:28:29.956Z,53.40
2019-06-26T12:30:58.376Z,51.00
2019-06-26T12:33:25.896Z,51.30
2019-06-26T12:35:54.074Z,50.40
2019-06-26T12:38:21.578Z,46.80
2019-06-26T12:40:48.946Z,51.20
2019-06-26T12:43:16.641Z,49.90
2019-06-26T12:45:44.245Z,53.20
2019-06-26T12:48:16.159Z,51.40
2019-06-26T12:50:43.012Z,50.00
2019-06-26T12:53:10.518Z,51.80
2019-06-26T12:55:38.054Z,49.40
2019-06-26T12:58:13.281Z,51.40
2019-06-26T13:00:35.089Z,49.60
2019-06-26T13:03:02.706Z,48.10
2019-06-26T13:05:30.547Z,46.90
2019-06-26T13:07:58.052Z,48.30
2019-06-26T13:10:25.615Z,45.90
2019-06-26T13:12:53.364Z,46.80
2019-06-26T13:15:20.932Z,49.10
2019-06-26T13:17:48.550Z,45.10
2019-06-26T13:20:16.599Z,48.00
2019-06-26T13:22:44.777Z,43.60
2019-06-26T13:25:15.662Z,45.00
2019-06-26T13:27:42.047Z,44.70
2019-06-26T13:30:09.965Z,45.70
2019-06-26T13:32:37.614Z,42.00
2019-06-26T13:35:05.629Z,44.50
2019-06-26T13:37:33.377Z,45.00
2019-06-26T13:40:01.247Z,43.90
2019-06-26T13:42:29.618Z,49.10
2019-06-26T13:44:57.717Z,46.30
2019-06-26T13:47:25.242Z,44.60
2019-06-26T13:49:52.817Z,46.50
2019-06-26T13:52:20.382Z,43.90
2019-06-26T13:54:48.443Z,42.60
2019-06-26T13:57:16.068Z,43.00
2019-06-26T13:59:43.673Z,43.90
2019-06-26T14:02:11.534Z,42.20
2019-06-26T14:04:39.346Z,42.80
2019-06-26T14:07:08.651Z,43.20
2019-06-26T14:09:36.185Z,44.80
2019-06-26T14:12:03.696Z,45.40
2019-06-26T14:14:52.481Z,45.00
2019-06-26T14:17:01.743Z,43.20
2019-06-26T14:19:29.781Z,43.50
2019-06-26T14:21:57.358Z,45.80
2019-06-26T14:24:25.541Z,44.20
2019-06-26T14:26:55.294Z,42.40
2019-06-26T14:29:22.841Z,42.00
2019-06-26T14:31:50.355Z,41.40
2019-06-26T14:34:18.178Z,42.30
2019-06-26T14:36:45.923Z,42.50
2019-06-26T14:39:13.504Z,43.60
2019-06-26T14:41:41.072Z,41.20
2019-06-26T14:44:08.598Z,41.40
2019-06-26T14:46:36.157Z,41.30
2019-06-26T14:49:03.836Z,43.30
2019-06-26T14:51:42.229Z,42.10
2019-06-26T14:54:00.900Z,40.30
2019-06-26T14:56:28.438Z,42.90
2019-06-26T14:58:56.569Z,41.80
2019-06-26T15:01:24.547Z,40.30
2019-06-26T15:03:53.358Z,41.00
2019-06-26T15:06:21.018Z,41.70
2019-06-26T15:08:48.536Z,42.80
2019-06-26T15:11:16.996Z,43.70
2019-06-26T15:13:44.504Z,43.50
2019-06-26T15:16:12.050Z,41.60
2019-06-26T15:18:39.875Z,40.50
2019-06-26T15:21:07.429Z,40.80
2019-06-26T15:23:35.320Z,44.40
2019-06-26T15:26:02.754Z,44.20
2019-06-26T15:28:30.568Z,41.90
2019-06-26T15:30:58.097Z,44.20
2019-06-26T15:33:25.610Z,42.30
2019-06-26T15:35:53.455Z,43.90
2019-06-26T15:38:21.369Z,42.20
2019-06-26T15:40:48.795Z,42.90
2019-06-26T15:43:16.373Z,45.80
2019-06-26T15:45:44.532Z,45.70
2019-06-26T15:48:11.939Z,45.90
2019-06-26T15:50:39.656Z,44.70
2019-06-26T15:53:07.282Z,45.70
2019-06-26T15:55:34.955Z,44.30
2019-06-26T15:58:02.502Z,43.10
2019-06-26T16:00:30.403Z,43.80
2019-06-26T16:02:57.921Z,43.40
2019-06-26T16:05:25.796Z,44.40
2019-06-26T16:07:53.346Z,45.30
2019-06-26T16:10:20.852Z,46.50
2019-06-26T16:12:48.774Z,45.50
2019-06-26T16:15:17.180Z,46.40
2019-06-26T16:17:59.364Z,45.90
2019-06-26T16:20:27.213Z,47.30
2019-06-26T16:22:54.689Z,46.80
2019-06-26T16:25:22.257Z,48.00
2019-06-26T16:28:04.229Z,47.80
2019-06-26T16:30:20.859Z,46.00
2019-06-26T16:32:48.395Z,46.60
2019-06-26T16:35:16.171Z,44.30
2019-06-26T16:37:44.977Z,45.30
2019-06-26T16:40:12.586Z,46.10
2019-06-26T16:42:40.352Z,47.00
2019-06-26T16:45:08.981Z,48.80
2019-06-26T16:47:36.565Z,47.90
2019-06-26T16:50:04.117Z,46.10
2019-06-26T16:52:47.841Z,47.10
2019-06-26T16:55:01.759Z,47.10
2019-06-26T16:57:29.552Z,47.20
2019-06-26T17:00:08.983Z,47.70
2019-06-26T17:02:26.847Z,46.60
2019-06-26T17:04:54.470Z,47.80
2019-06-26T17:07:22.057Z,48.40
2019-06-26T17:09:57.359Z,47.80
2019-06-26T17:12:25.154Z,47.50
2019-06-26T17:14:52.793Z,48.20
2019-06-26T17:17:20.342Z,49.40
2019-06-26T17:19:47.883Z,49.70
2019-06-26T17:22:15.582Z,50.30
2019-06-26T17:24:43.436Z,50.50
2019-06-26T17:27:10.982Z,51.50
2019-06-26T17:29:38.864Z,52.70
2019-06-26T17:32:06.626Z,52.70
2019-06-26T17:34:34.198Z,51.80
2019-06-26T17:37:01.680Z,51.70
2019-06-26T17:39:29.615Z,53.00
2019-06-26T17:41:57.183Z,54.00
2019-06-26T17:44:25.120Z,52.40
2019-06-26T17:46:53.101Z,52.00
2019-06-26T17:49:20.863Z,53.40
2019-06-26T17:51:48.632Z,54.60
2019-06-26T17:54:16.145Z,53.90
2019-06-26T17:56:44.062Z,53.40
2019-06-26T17:59:11.554Z,52.90
2019-06-26T18:01:39.051Z,53.10
2019-06-26T18:04:06.731Z,53.80
2019-06-26T18:06:34.546Z,52.90
2019-06-26T18:09:02.780Z,52.70
2019-06-26T18:11:32.258Z,51.60
2019-06-26T18:14:00.049Z,51.60
2019-06-26T18:16:27.787Z,52.30
2019-06-26T18:18:55.299Z,52.10
2019-06-26T18:21:23.099Z,52.80
2019-06-26T18:23:50.921Z,53.00
2019-06-26T18:26:18.388Z,52.90
2019-06-26T18:28:46.320Z,53.60
2019-06-26T18:31:13.794Z,53.20
2019-06-26T18:33:44.252Z,53.00
2019-06-26T18:36:11.419Z,53.30
2019-06-26T18:38:38.937Z,54.40
2019-06-26T18:41:06.719Z,55.10
2019-06-26T18:43:34.439Z,55.70
2019-06-26T18:46:02.513Z,55.40
2019-06-26T18:48:30.344Z,55.90
2019-06-26T18:50:57.734Z,55.50
2019-06-26T18:53:25.250Z,55.40
2019-06-26T18:55:52.807Z,55.50
2019-06-26T18:58:21.133Z,56.00
2019-06-26T19:00:48.987Z,56.20
2019-06-26T19:03:16.563Z,55.60
2019-06-26T19:05:44.355Z,55.60
2019-06-26T19:08:11.957Z,55.70
2019-06-26T19:10:39.637Z,55.80
2019-06-26T19:13:07.815Z,55.90
2019-06-26T19:15:35.358Z,55.00
2019-06-26T19:18:03.025Z,54.30
2019-06-26T19:20:33.809Z,54.30
2019-06-26T19:23:00.428Z,54.00
2019-06-26T19:25:28.685Z,54.70
2019-06-26T19:27:56.669Z,54.70
2019-06-26T19:30:24.279Z,55.10
2019-06-26T19:32:52.307Z,55.10
2019-06-26T19:35:20.456Z,55.20
2019-06-26T19:37:49.240Z,55.20
2019-06-26T19:40:17.648Z,55.60
2019-06-26T19:42:45.258Z,55.60
2019-06-26T19:45:13.597Z,55.50
2019-06-26T19:47:41.588Z,55.20
2019-06-26T19:50:09.696Z,55.40
2019-06-26T19:52:37.403Z,55.60
2019-06-26T19:55:05.673Z,55.20
2019-06-26T19:57:34.215Z,55.20
2019-06-26T20:00:02.181Z,55.60
2019-06-26T20:02:30.691Z,55.80
2019-06-26T20:04:58.870Z,55.30
2019-06-26T20:07:28.052Z,55.30
2019-06-26T20:09:55.644Z,56.00
2019-06-26T20:12:23.566Z,56.20
2019-06-26T20:14:51.906Z,55.80
2019-06-26T20:17:20.222Z,55.90
2019-06-26T20:19:48.092Z,56.20
2019-06-26T20:22:15.678Z,56.30
2019-06-26T20:24:44.794Z,56.60
2019-06-26T20:27:12.710Z,56.30
2019-06-26T20:29:40.278Z,56.70
2019-06-26T20:32:08.966Z,56.60
2019-06-26T20:34:36.725Z,56.60
2019-06-26T20:37:04.593Z,56.70
2019-06-26T20:39:32.137Z,56.30
2019-06-26T20:41:59.756Z,56.40
2019-06-26T20:44:28.371Z,56.50
2019-06-26T20:46:56.023Z,56.30
2019-06-26T20:49:23.806Z,56.20
2019-06-26T20:51:51.869Z,55.80
2019-06-26T20:54:19.608Z,56.00
2019-06-26T20:56:47.260Z,56.20
2019-06-26T20:59:15.814Z,56.60
2019-06-26T21:01:44.809Z,56.80
2019-06-26T21:04:12.633Z,56.90
2019-06-26T21:06:40.171Z,57.50
2019-06-26T21:09:08.053Z,56.70
2019-06-26T21:11:35.980Z,56.10
2019-06-26T21:14:03.823Z,56.30
2019-06-26T21:16:31.397Z,56.50
2019-06-26T21:18:59.184Z,56.30
2019-06-26T21:21:26.921Z,55.70
2019-06-26T21:23:55.087Z,55.30
2019-06-26T21:26:22.747Z,56.00
2019-06-26T21:28:50.626Z,56.20
2019-06-26T21:31:18.141Z,56.20
2019-06-26T21:33:45.855Z,56.50
2019-06-26T21:36:13.497Z,57.00
2019-06-26T21:38:41.118Z,57.30
2019-06-26T21:41:08.967Z,57.20
2019-06-26T21:43:36.466Z,57.50
2019-06-26T21:46:04.232Z,57.90
2019-06-26T21:48:32.379Z,58.00
2019-06-26T21:50:59.880Z,58.40
2019-06-26T21:53:27.417Z,58.50
2019-06-26T21:56:13.983Z,58.40
2019-06-26T21:58:59.947Z,58.50
2019-06-26T22:01:46.334Z,58.80
2019-06-26T22:04:32.621Z,58.90
2019-06-26T22:07:19.144Z,59.50
2019-06-26T22:09:51.423Z,59.30
2019-06-26T22:12:19.596Z,59.40
2019-06-26T22:14:47.495Z,59.80
2019-06-26T22:17:15.191Z,59.60
2019-06-26T22:19:42.869Z,60.30
2019-06-26T22:22:10.894Z,61.40
2019-06-26T22:24:39.115Z,62.40
2019-06-26T22:27:07.197Z,61.60
2019-06-26T22:29:35.322Z,61.90
2019-06-26T22:32:02.931Z,62.10
2019-06-26T22:34:30.915Z,62.00
2019-06-26T22:36:58.479Z,62.30
2019-06-26T22:39:26.080Z,62.00
2019-06-26T22:41:53.925Z,62.50
2019-06-26T22:44:21.466Z,63.30
2019-06-26T22:46:49.379Z,63.90
2019-06-26T22:49:16.971Z,65.30
2019-06-26T22:51:45.729Z,65.10
2019-06-26T22:54:13.326Z,65.00
2019-06-26T22:56:41.100Z,65.10
2019-06-26T22:59:08.765Z,65.10
2019-06-26T23:01:36.527Z,65.80
2019-06-26T23:04:04.469Z,66.50
2019-06-26T23:06:32.257Z,67.00
2019-06-26T23:09:00.039Z,66.70
2019-06-26T23:11:28.626Z,66.20
2019-06-26T23:13:57.321Z,66.50
2019-06-26T23:16:25.262Z,65.80
2019-06-26T23:18:53.280Z,65.80
2019-06-26T23:21:21.177Z,65.90
2019-06-26T23:23:49.309Z,65.50
2019-06-26T23:26:23.977Z,65.60
2019-06-26T23:28:46.543Z,65.70
2019-06-26T23:31:14.047Z,66.00
2019-06-26T23:33:41.589Z,66.80
2019-06-26T23:36:09.389Z,67.40
2019-06-26T23:38:36.993Z,67.70
2019-06-26T23:41:05.840Z,67.90
2019-06-26T23:43:33.622Z,68.00
2019-06-26T23:46:01.465Z,69.40
2019-06-26T23:48:29.409Z,69.80
2019-06-26T23:50:56.906Z,70.10
2019-06-26T23:53:24.761Z,69.80
2019-06-26T23:55:52.274Z,69.70
2019-06-26T23:58:20.784Z,69.90
